sensor_id;sensor_type;location;lat;lon;timestamp;pressure;altitude;pressure_sealevel;temperature;humidity
3294;BME280;1659;51.470;6.770;2023-07-20T00:01:32;101163.28;;;18.55;67.58
3294;BME280;1659;51.470;6.770;2023-07-20T00:03:58;101158.84;;;18.54;67.73
3294;BME280;1659;51.470;6.770;2023-07-20T00:06:25;101156.34;;;18.51;67.87
3294;BME280;1659;51.470;6.770;2023-07-20T00:08:53;101156.41;;;18.49;68.05
3294;BME280;1659;51.470;6.770;2023-07-20T00:11:21;101161.88;;;18.46;68.11
3294;BME280;1659;51.470;6.770;2023-07-20T00:13:47;101154.13;;;18.40;68.39
3294;BME280;1659;51.470;6.770;2023-07-20T00:16:14;101157.09;;;18.34;68.60
3294;BME280;1659;51.470;6.770;2023-07-20T00:18:40;101153.75;;;18.28;68.72
3294;BME280;1659;51.470;6.770;2023-07-20T00:21:07;101150.28;;;18.26;68.81
3294;BME280;1659;51.470;6.770;2023-07-20T00:23:33;101155.78;;;18.23;68.96
3294;BME280;1659;51.470;6.770;2023-07-20T00:26:00;101156.69;;;18.22;68.75
3294;BME280;1659;51.470;6.770;2023-07-20T00:28:28;101153.28;;;18.19;68.93
3294;BME280;1659;51.470;6.770;2023-07-20T00:30:55;101152.44;;;18.18;69.00
3294;BME280;1659;51.470;6.770;2023-07-20T00:33:22;101141.72;;;18.18;69.08
3294;BME280;1659;51.470;6.770;2023-07-20T00:35:48;101138.13;;;18.19;69.06
3294;BME280;1659;51.470;6.770;2023-07-20T00:38:15;101138.06;;;18.21;69.14
3294;BME280;1659;51.470;6.770;2023-07-20T00:40:41;101140.75;;;18.21;69.08
3294;BME280;1659;51.470;6.770;2023-07-20T00:43:08;101138.94;;;18.21;69.14
3294;BME280;1659;51.470;6.770;2023-07-20T00:45:36;101145.13;;;18.22;69.25
3294;BME280;1659;51.470;6.770;2023-07-20T00:48:06;101138.13;;;18.19;69.24
3294;BME280;1659;51.470;6.770;2023-07-20T00:50:33;101137.25;;;18.19;69.34
3294;BME280;1659;51.470;6.770;2023-07-20T00:53:03;101142.66;;;18.17;69.30
3294;BME280;1659;51.470;6.770;2023-07-20T00:55:30;101142.81;;;18.14;69.39
3294;BME280;1659;51.470;6.770;2023-07-20T00:57:57;101144.75;;;18.10;69.48
3294;BME280;1659;51.470;6.770;2023-07-20T01:00:25;101144.03;;;18.07;69.58
3294;BME280;1659;51.470;6.770;2023-07-20T01:02:53;101141.59;;;18.01;69.71
3294;BME280;1659;51.470;6.770;2023-07-20T01:05:20;101143.56;;;17.97;69.88
3294;BME280;1659;51.470;6.770;2023-07-20T01:07:54;101140.13;;;17.93;69.97
3294;BME280;1659;51.470;6.770;2023-07-20T01:10:27;101148.41;;;17.87;70.01
3294;BME280;1659;51.470;6.770;2023-07-20T01:12:55;101147.88;;;17.79;70.25
3294;BME280;1659;51.470;6.770;2023-07-20T01:15:22;101148.00;;;17.76;70.33
3294;BME280;1659;51.470;6.770;2023-07-20T01:17:50;101143.72;;;17.72;70.47
3294;BME280;1659;51.470;6.770;2023-07-20T01:20:20;101143.84;;;17.69;70.69
3294;BME280;1659;51.470;6.770;2023-07-20T01:23:04;101143.91;;;17.67;70.72
3294;BME280;1659;51.470;6.770;2023-07-20T01:25:59;101136.69;;;17.69;70.75
3294;BME280;1659;51.470;6.770;2023-07-20T01:28:55;101156.25;;;17.70;70.71
3294;BME280;1659;51.470;6.770;2023-07-20T01:31:27;101149.19;;;17.69;70.91
3294;BME280;1659;51.470;6.770;2023-07-20T01:33:57;101140.31;;;17.68;71.24
3294;BME280;1659;51.470;6.770;2023-07-20T01:36:24;101147.50;;;17.66;71.58
3294;BME280;1659;51.470;6.770;2023-07-20T01:38:52;101140.38;;;17.67;71.73
3294;BME280;1659;51.470;6.770;2023-07-20T01:41:20;101140.63;;;17.61;72.13
3294;BME280;1659;51.470;6.770;2023-07-20T01:43:47;101140.72;;;17.58;72.20
3294;BME280;1659;51.470;6.770;2023-07-20T01:46:13;101139.41;;;17.47;72.58
3294;BME280;1659;51.470;6.770;2023-07-20T01:48:42;101138.28;;;17.31;73.05
3294;BME280;1659;51.470;6.770;2023-07-20T01:51:08;101143.25;;;17.18;73.54
3294;BME280;1659;51.470;6.770;2023-07-20T01:53:35;101130.47;;;17.04;74.21
3294;BME280;1659;51.470;6.770;2023-07-20T01:56:02;101136.19;;;16.95;74.81
3294;BME280;1659;51.470;6.770;2023-07-20T01:58:28;101131.94;;;16.89;75.31
3294;BME280;1659;51.470;6.770;2023-07-20T02:00:55;101143.59;;;16.87;75.82
3294;BME280;1659;51.470;6.770;2023-07-20T02:03:21;101147.25;;;16.84;76.07
3294;BME280;1659;51.470;6.770;2023-07-20T02:05:50;101143.81;;;16.80;76.57
3294;BME280;1659;51.470;6.770;2023-07-20T02:08:17;101151.13;;;16.75;77.26
3294;BME280;1659;51.470;6.770;2023-07-20T02:10:45;101151.47;;;16.66;78.36
3294;BME280;1659;51.470;6.770;2023-07-20T02:13:11;101152.81;;;16.54;79.64
3294;BME280;1659;51.470;6.770;2023-07-20T02:15:38;101155.97;;;16.40;80.48
3294;BME280;1659;51.470;6.770;2023-07-20T02:18:05;101151.81;;;16.33;81.23
3294;BME280;1659;51.470;6.770;2023-07-20T02:20:32;101159.00;;;16.31;81.95
3294;BME280;1659;51.470;6.770;2023-07-20T02:23:02;101149.25;;;16.30;82.54
3294;BME280;1659;51.470;6.770;2023-07-20T02:25:29;101159.03;;;16.30;83.44
3294;BME280;1659;51.470;6.770;2023-07-20T02:27:56;101165.31;;;16.29;83.74
3294;BME280;1659;51.470;6.770;2023-07-20T02:30:23;101157.44;;;16.26;84.18
3294;BME280;1659;51.470;6.770;2023-07-20T02:32:49;101156.66;;;16.22;84.64
3294;BME280;1659;51.470;6.770;2023-07-20T02:35:16;101159.38;;;16.20;85.23
3294;BME280;1659;51.470;6.770;2023-07-20T02:37:43;101158.72;;;16.14;85.73
3294;BME280;1659;51.470;6.770;2023-07-20T02:40:11;101155.34;;;16.09;86.10
3294;BME280;1659;51.470;6.770;2023-07-20T02:42:38;101157.25;;;16.05;86.69
3294;BME280;1659;51.470;6.770;2023-07-20T02:45:05;101156.44;;;16.03;87.07
3294;BME280;1659;51.470;6.770;2023-07-20T02:47:32;101153.84;;;16.01;87.45
3294;BME280;1659;51.470;6.770;2023-07-20T02:49:59;101168.06;;;16.00;87.93
3294;BME280;1659;51.470;6.770;2023-07-20T02:52:25;101158.34;;;15.99;87.92
3294;BME280;1659;51.470;6.770;2023-07-20T02:54:52;101161.06;;;15.98;88.29
3294;BME280;1659;51.470;6.770;2023-07-20T02:57:20;101157.53;;;15.97;88.30
3294;BME280;1659;51.470;6.770;2023-07-20T02:59:46;101154.00;;;15.97;88.73
3294;BME280;1659;51.470;6.770;2023-07-20T03:02:13;101164.59;;;15.98;89.09
3294;BME280;1659;51.470;6.770;2023-07-20T03:04:39;101166.34;;;15.99;89.29
3294;BME280;1659;51.470;6.770;2023-07-20T03:07:06;101166.25;;;16.02;89.78
3294;BME280;1659;51.470;6.770;2023-07-20T03:09:33;101164.31;;;16.08;89.99
3294;BME280;1659;51.470;6.770;2023-07-20T03:11:59;101164.97;;;16.13;90.31
3294;BME280;1659;51.470;6.770;2023-07-20T03:14:27;101170.25;;;16.14;90.47
3294;BME280;1659;51.470;6.770;2023-07-20T03:16:54;101159.50;;;16.17;90.64
3294;BME280;1659;51.470;6.770;2023-07-20T03:19:20;101172.78;;;16.19;90.77
3294;BME280;1659;51.470;6.770;2023-07-20T03:21:47;101172.78;;;16.19;91.03
3294;BME280;1659;51.470;6.770;2023-07-20T03:24:13;101171.84;;;16.20;91.39
3294;BME280;1659;51.470;6.770;2023-07-20T03:26:40;101175.34;;;16.22;91.60
3294;BME280;1659;51.470;6.770;2023-07-20T03:29:06;101170.00;;;16.22;91.98
3294;BME280;1659;51.470;6.770;2023-07-20T03:31:35;101164.66;;;16.22;92.29
3294;BME280;1659;51.470;6.770;2023-07-20T03:34:01;101172.63;;;16.23;92.50
3294;BME280;1659;51.470;6.770;2023-07-20T03:36:28;101170.75;;;16.26;92.83
3294;BME280;1659;51.470;6.770;2023-07-20T03:38:54;101177.00;;;16.24;93.04
3294;BME280;1659;51.470;6.770;2023-07-20T03:41:21;101176.94;;;16.26;93.26
3294;BME280;1659;51.470;6.770;2023-07-20T03:43:47;101181.44;;;16.26;93.53
3294;BME280;1659;51.470;6.770;2023-07-20T03:46:14;101183.22;;;16.25;93.74
3294;BME280;1659;51.470;6.770;2023-07-20T03:48:42;101186.81;;;16.24;94.14
3294;BME280;1659;51.470;6.770;2023-07-20T03:51:08;101188.56;;;16.25;94.31
3294;BME280;1659;51.470;6.770;2023-07-20T03:53:35;101189.47;;;16.24;94.64
3294;BME280;1659;51.470;6.770;2023-07-20T03:56:02;101185.00;;;16.24;94.84
3294;BME280;1659;51.470;6.770;2023-07-20T03:58:28;101180.56;;;16.25;95.02
3294;BME280;1659;51.470;6.770;2023-07-20T04:00:55;101178.75;;;16.26;95.05
3294;BME280;1659;51.470;6.770;2023-07-20T04:03:23;101185.94;;;16.23;95.29
3294;BME280;1659;51.470;6.770;2023-07-20T04:05:53;101188.66;;;16.22;95.22
3294;BME280;1659;51.470;6.770;2023-07-20T04:08:19;101189.53;;;16.22;95.37
3294;BME280;1659;51.470;6.770;2023-07-20T04:10:46;101192.25;;;16.21;95.44
3294;BME280;1659;51.470;6.770;2023-07-20T04:13:12;101197.56;;;16.21;95.34
3294;BME280;1659;51.470;6.770;2023-07-20T04:15:39;101196.78;;;16.19;95.45
3294;BME280;1659;51.470;6.770;2023-07-20T04:18:05;101190.69;;;16.15;95.52
3294;BME280;1659;51.470;6.770;2023-07-20T04:20:32;101196.06;;;16.14;95.76
3294;BME280;1659;51.470;6.770;2023-07-20T04:23:00;101199.63;;;16.13;95.74
3294;BME280;1659;51.470;6.770;2023-07-20T04:25:26;101205.88;;;16.13;95.82
3294;BME280;1659;51.470;6.770;2023-07-20T04:27:53;101202.19;;;16.16;96.00
3294;BME280;1659;51.470;6.770;2023-07-20T04:30:21;101202.09;;;16.19;96.15
3294;BME280;1659;51.470;6.770;2023-07-20T04:32:48;101199.44;;;16.19;96.29
3294;BME280;1659;51.470;6.770;2023-07-20T04:35:17;101200.34;;;16.18;96.35
3294;BME280;1659;51.470;6.770;2023-07-20T04:37:45;101211.16;;;16.15;96.15
3294;BME280;1659;51.470;6.770;2023-07-20T04:40:15;101211.09;;;16.16;96.29
3294;BME280;1659;51.470;6.770;2023-07-20T04:42:42;101205.53;;;16.22;96.58
3294;BME280;1659;51.470;6.770;2023-07-20T04:45:09;101209.75;;;16.28;96.71
3294;BME280;1659;51.470;6.770;2023-07-20T04:47:38;101210.38;;;16.36;96.67
3294;BME280;1659;51.470;6.770;2023-07-20T04:50:05;101219.03;;;16.43;96.88
3294;BME280;1659;51.470;6.770;2023-07-20T04:52:32;101225.88;;;16.50;96.84
3294;BME280;1659;51.470;6.770;2023-07-20T04:54:59;101223.97;;;16.54;96.71
3294;BME280;1659;51.470;6.770;2023-07-20T04:57:26;101224.78;;;16.56;96.75
3294;BME280;1659;51.470;6.770;2023-07-20T04:59:53;101225.78;;;16.53;97.06
3294;BME280;1659;51.470;6.770;2023-07-20T05:02:20;101234.66;;;16.54;97.13
3294;BME280;1659;51.470;6.770;2023-07-20T05:04:46;101225.84;;;16.52;97.12
3294;BME280;1659;51.470;6.770;2023-07-20T05:07:13;101230.41;;;16.48;97.38
3294;BME280;1659;51.470;6.770;2023-07-20T05:09:39;101235.78;;;16.47;97.45
3294;BME280;1659;51.470;6.770;2023-07-20T05:12:06;101225.22;;;16.43;97.53
3294;BME280;1659;51.470;6.770;2023-07-20T05:14:34;101231.56;;;16.41;97.59
3294;BME280;1659;51.470;6.770;2023-07-20T05:17:01;101236.13;;;16.37;97.73
3294;BME280;1659;51.470;6.770;2023-07-20T05:19:27;101236.13;;;16.37;97.75
3294;BME280;1659;51.470;6.770;2023-07-20T05:21:54;101233.56;;;16.34;97.99
3294;BME280;1659;51.470;6.770;2023-07-20T05:24:20;101234.47;;;16.33;98.12
3294;BME280;1659;51.470;6.770;2023-07-20T05:26:47;101243.28;;;16.35;98.18
3294;BME280;1659;51.470;6.770;2023-07-20T05:29:14;101238.84;;;16.36;97.97
3294;BME280;1659;51.470;6.770;2023-07-20T05:31:42;101237.75;;;16.41;98.07
3294;BME280;1659;51.470;6.770;2023-07-20T05:34:08;101238.31;;;16.51;97.91
3294;BME280;1659;51.470;6.770;2023-07-20T05:36:35;101234.72;;;17.01;96.50
3294;BME280;1659;51.470;6.770;2023-07-20T05:39:02;101234.44;;;17.75;93.78
3294;BME280;1659;51.470;6.770;2023-07-20T05:41:29;101228.25;;;18.38;91.26
3294;BME280;1659;51.470;6.770;2023-07-20T05:43:55;101236.06;;;18.83;90.00
3294;BME280;1659;51.470;6.770;2023-07-20T05:46:22;101234.19;;;19.23;89.25
3294;BME280;1659;51.470;6.770;2023-07-20T05:48:51;101236.50;;;19.50;88.59
3294;BME280;1659;51.470;6.770;2023-07-20T05:51:17;101244.50;;;19.33;89.49
3294;BME280;1659;51.470;6.770;2023-07-20T05:53:44;101244.84;;;19.25;90.18
3294;BME280;1659;51.470;6.770;2023-07-20T05:56:11;101250.72;;;19.14;90.95
3294;BME280;1659;51.470;6.770;2023-07-20T05:58:37;101249.09;;;18.91;90.52
3294;BME280;1659;51.470;6.770;2023-07-20T06:01:04;101251.72;;;18.72;92.45
3294;BME280;1659;51.470;6.770;2023-07-20T06:03:32;101254.94;;;18.60;92.89
3294;BME280;1659;51.470;6.770;2023-07-20T06:06:01;101251.59;;;18.75;92.89
3294;BME280;1659;51.470;6.770;2023-07-20T06:08:27;101256.88;;;19.35;90.19
3294;BME280;1659;51.470;6.770;2023-07-20T06:10:54;101249.56;;;20.12;87.35
3294;BME280;1659;51.470;6.770;2023-07-20T06:13:21;101258.31;;;20.50;85.98
3294;BME280;1659;51.470;6.770;2023-07-20T06:15:48;101263.44;;;21.06;84.67
3294;BME280;1659;51.470;6.770;2023-07-20T06:18:14;101261.47;;;21.73;82.96
3294;BME280;1659;51.470;6.770;2023-07-20T06:20:41;101258.56;;;22.22;81.86
3294;BME280;1659;51.470;6.770;2023-07-20T06:23:09;101261.28;;;22.81;80.01
3294;BME280;1659;51.470;6.770;2023-07-20T06:25:35;101263.22;;;23.37;78.56
3294;BME280;1659;51.470;6.770;2023-07-20T06:28:02;101256.28;;;24.02;77.00
3294;BME280;1659;51.470;6.770;2023-07-20T06:30:30;101260.91;;;24.40;75.32
3294;BME280;1659;51.470;6.770;2023-07-20T06:32:56;101266.78;;;24.19;76.18
3294;BME280;1659;51.470;6.770;2023-07-20T06:35:23;101269.16;;;24.11;75.76
3294;BME280;1659;51.470;6.770;2023-07-20T06:37:49;101262.09;;;24.48;75.65
3294;BME280;1659;51.470;6.770;2023-07-20T06:40:18;101265.97;;;23.91;76.66
3294;BME280;1659;51.470;6.770;2023-07-20T06:42:45;101269.63;;;23.07;78.64
3294;BME280;1659;51.470;6.770;2023-07-20T06:45:11;101268.38;;;22.39;80.77
3294;BME280;1659;51.470;6.770;2023-07-20T06:47:38;101275.16;;;22.75;79.50
3294;BME280;1659;51.470;6.770;2023-07-20T06:50:06;101274.81;;;23.10;77.45
3294;BME280;1659;51.470;6.770;2023-07-20T06:52:33;101275.34;;;22.58;78.41
3294;BME280;1659;51.470;6.770;2023-07-20T06:54:59;101265.41;;;21.98;79.90
3294;BME280;1659;51.470;6.770;2023-07-20T06:57:27;101273.19;;;21.56;80.88
3294;BME280;1659;51.470;6.770;2023-07-20T06:59:54;101271.09;;;21.61;79.93
3294;BME280;1659;51.470;6.770;2023-07-20T07:02:20;101280.47;;;21.54;78.65
3294;BME280;1659;51.470;6.770;2023-07-20T07:04:47;101287.88;;;21.17;79.27
3294;BME280;1659;51.470;6.770;2023-07-20T07:07:14;101289.19;;;20.77;80.15
3294;BME280;1659;51.470;6.770;2023-07-20T07:09:40;101287.38;;;20.42;80.62
3294;BME280;1659;51.470;6.770;2023-07-20T07:12:08;101283.03;;;20.05;81.35
3294;BME280;1659;51.470;6.770;2023-07-20T07:14:36;101290.59;;;19.77;81.64
3294;BME280;1659;51.470;6.770;2023-07-20T07:17:03;101292.81;;;19.50;81.92
3294;BME280;1659;51.470;6.770;2023-07-20T07:19:29;101297.25;;;19.31;81.89
3294;BME280;1659;51.470;6.770;2023-07-20T07:21:56;101300.31;;;19.23;81.87
3294;BME280;1659;51.470;6.770;2023-07-20T07:24:22;101298.22;;;19.30;81.84
3294;BME280;1659;51.470;6.770;2023-07-20T07:26:49;101297.94;;;20.45;78.14
3294;BME280;1659;51.470;6.770;2023-07-20T07:29:15;101286.63;;;21.88;74.17
3294;BME280;1659;51.470;6.770;2023-07-20T07:31:43;101286.91;;;23.03;71.14
3294;BME280;1659;51.470;6.770;2023-07-20T07:34:10;101293.03;;;23.63;70.35
3294;BME280;1659;51.470;6.770;2023-07-20T07:36:37;101288.28;;;24.08;69.36
3294;BME280;1659;51.470;6.770;2023-07-20T07:39:03;101299.63;;;23.86;70.26
3294;BME280;1659;51.470;6.770;2023-07-20T07:41:30;101296.97;;;24.39;69.20
3294;BME280;1659;51.470;6.770;2023-07-20T07:43:57;101293.03;;;25.09;67.54
3294;BME280;1659;51.470;6.770;2023-07-20T07:46:23;101297.16;;;25.64;66.53
3294;BME280;1659;51.470;6.770;2023-07-20T07:48:51;101301.03;;;26.21;65.55
3294;BME280;1659;51.470;6.770;2023-07-20T07:51:18;101306.38;;;26.69;64.99
3294;BME280;1659;51.470;6.770;2023-07-20T07:53:45;101302.59;;;27.28;62.81
3294;BME280;1659;51.470;6.770;2023-07-20T07:56:12;101306.47;;;27.81;62.23
3294;BME280;1659;51.470;6.770;2023-07-20T07:58:40;101305.38;;;28.16;61.08
3294;BME280;1659;51.470;6.770;2023-07-20T08:01:06;101313.47;;;28.59;59.33
3294;BME280;1659;51.470;6.770;2023-07-20T08:03:33;101316.63;;;28.86;58.84
3294;BME280;1659;51.470;6.770;2023-07-20T08:06:03;101310.38;;;28.95;58.12
3294;BME280;1659;51.470;6.770;2023-07-20T08:08:31;101319.22;;;28.87;57.65
3294;BME280;1659;51.470;6.770;2023-07-20T08:10:58;101325.34;;;28.26;59.12
3294;BME280;1659;51.470;6.770;2023-07-20T08:13:25;101328.94;;;26.92;61.90
3294;BME280;1659;51.470;6.770;2023-07-20T08:15:52;101329.72;;;25.99;64.17
3294;BME280;1659;51.470;6.770;2023-07-20T08:18:19;101327.22;;;25.10;65.41
3294;BME280;1659;51.470;6.770;2023-07-20T08:20:46;101329.84;;;24.45;66.44
3294;BME280;1659;51.470;6.770;2023-07-20T08:23:15;101336.72;;;23.97;66.76
3294;BME280;1659;51.470;6.770;2023-07-20T08:25:42;101330.13;;;23.59;66.83
3294;BME280;1659;51.470;6.770;2023-07-20T08:28:10;101331.22;;;23.98;65.08
3294;BME280;1659;51.470;6.770;2023-07-20T08:30:40;101330.41;;;24.23;63.57
3294;BME280;1659;51.470;6.770;2023-07-20T08:33:07;101330.13;;;24.81;61.69
3294;BME280;1659;51.470;6.770;2023-07-20T08:35:34;101335.84;;;25.02;61.44
3294;BME280;1659;51.470;6.770;2023-07-20T08:38:01;101335.88;;;25.15;61.14
3294;BME280;1659;51.470;6.770;2023-07-20T08:40:29;101337.16;;;24.96;61.36
3294;BME280;1659;51.470;6.770;2023-07-20T08:42:56;101339.53;;;25.39;60.62
3294;BME280;1659;51.470;6.770;2023-07-20T08:45:26;101344.53;;;25.70;60.16
3294;BME280;1659;51.470;6.770;2023-07-20T08:47:58;101340.41;;;25.77;59.98
3294;BME280;1659;51.470;6.770;2023-07-20T08:50:26;101349.28;;;25.16;60.93
3294;BME280;1659;51.470;6.770;2023-07-20T08:52:55;101350.78;;;24.42;62.28
3294;BME280;1659;51.470;6.770;2023-07-20T08:55:23;101345.72;;;23.83;63.09
3294;BME280;1659;51.470;6.770;2023-07-20T08:57:53;101345.88;;;23.38;64.07
3294;BME280;1659;51.470;6.770;2023-07-20T09:00:21;101340.59;;;23.92;63.07
3294;BME280;1659;51.470;6.770;2023-07-20T09:02:53;101343.94;;;24.63;61.12
3294;BME280;1659;51.470;6.770;2023-07-20T09:05:22;101342.53;;;25.48;59.45
3294;BME280;1659;51.470;6.770;2023-07-20T09:07:50;101335.03;;;26.25;57.86
3294;BME280;1659;51.470;6.770;2023-07-20T09:10:17;101334.16;;;27.07;56.29
3294;BME280;1659;51.470;6.770;2023-07-20T09:12:44;101329.56;;;27.64;55.09
3294;BME280;1659;51.470;6.770;2023-07-20T09:15:12;101331.38;;;28.30;54.19
3294;BME280;1659;51.470;6.770;2023-07-20T09:17:39;101321.59;;;28.80;52.60
3294;BME280;1659;51.470;6.770;2023-07-20T09:20:07;101333.91;;;29.06;52.03
3294;BME280;1659;51.470;6.770;2023-07-20T09:22:36;101335.56;;;29.18;51.89
3294;BME280;1659;51.470;6.770;2023-07-20T09:25:06;101329.50;;;29.14;52.10
3294;BME280;1659;51.470;6.770;2023-07-20T09:27:37;101342.94;;;29.37;50.93
3294;BME280;1659;51.470;6.770;2023-07-20T09:30:05;101336.31;;;29.20;50.55
3294;BME280;1659;51.470;6.770;2023-07-20T09:32:38;101333.38;;;29.12;49.88
3294;BME280;1659;51.470;6.770;2023-07-20T09:35:12;101328.59;;;29.04;49.63
3294;BME280;1659;51.470;6.770;2023-07-20T09:37:40;101330.66;;;29.12;49.56
3294;BME280;1659;51.470;6.770;2023-07-20T09:40:07;101325.06;;;29.13;48.27
3294;BME280;1659;51.470;6.770;2023-07-20T09:42:35;101337.38;;;29.08;48.07
3294;BME280;1659;51.470;6.770;2023-07-20T09:45:05;101333.94;;;28.85;49.11
3294;BME280;1659;51.470;6.770;2023-07-20T09:47:35;101330.78;;;28.26;49.46
3294;BME280;1659;51.470;6.770;2023-07-20T09:50:04;101326.66;;;27.44;50.61
3294;BME280;1659;51.470;6.770;2023-07-20T09:52:36;101324.75;;;27.67;50.67
3294;BME280;1659;51.470;6.770;2023-07-20T09:55:04;101321.50;;;27.96;50.56
3294;BME280;1659;51.470;6.770;2023-07-20T09:57:32;101319.56;;;28.19;49.99
3294;BME280;1659;51.470;6.770;2023-07-20T10:00:03;101319.28;;;28.55;49.58
3294;BME280;1659;51.470;6.770;2023-07-20T10:02:37;101316.97;;;29.02;48.98
3294;BME280;1659;51.470;6.770;2023-07-20T10:05:08;101315.28;;;29.32;48.12
3294;BME280;1659;51.470;6.770;2023-07-20T10:07:39;101322.09;;;29.67;47.24
3294;BME280;1659;51.470;6.770;2023-07-20T10:10:09;101312.16;;;29.97;46.74
3294;BME280;1659;51.470;6.770;2023-07-20T10:12:37;101309.44;;;30.16;45.54
3294;BME280;1659;51.470;6.770;2023-07-20T10:15:11;101319.47;;;30.16;45.11
3294;BME280;1659;51.470;6.770;2023-07-20T10:17:46;101322.41;;;29.64;44.86
3294;BME280;1659;51.470;6.770;2023-07-20T10:20:16;101323.41;;;28.70;46.41
3294;BME280;1659;51.470;6.770;2023-07-20T10:22:45;101325.44;;;28.03;47.40
3294;BME280;1659;51.470;6.770;2023-07-20T10:25:14;101323.00;;;27.78;47.82
3294;BME280;1659;51.470;6.770;2023-07-20T10:27:41;101328.97;;;28.15;47.39
3294;BME280;1659;51.470;6.770;2023-07-20T10:30:09;101317.44;;;28.55;46.77
3294;BME280;1659;51.470;6.770;2023-07-20T10:32:36;101311.66;;;28.91;45.73
3294;BME280;1659;51.470;6.770;2023-07-20T10:35:12;101309.47;;;29.46;45.36
3294;BME280;1659;51.470;6.770;2023-07-20T10:37:46;101311.44;;;29.34;44.53
3294;BME280;1659;51.470;6.770;2023-07-20T10:40:30;101315.13;;;29.24;44.64
3294;BME280;1659;51.470;6.770;2023-07-20T10:43:02;101306.56;;;29.48;44.39
3294;BME280;1659;51.470;6.770;2023-07-20T10:45:33;101306.56;;;29.98;43.86
3294;BME280;1659;51.470;6.770;2023-07-20T10:48:03;101293.34;;;30.23;42.93
3294;BME280;1659;51.470;6.770;2023-07-20T10:50:32;101294.66;;;30.19;42.99
3294;BME280;1659;51.470;6.770;2023-07-20T10:53:05;101300.63;;;29.73;42.52
3294;BME280;1659;51.470;6.770;2023-07-20T10:55:36;101299.22;;;29.79;42.78
3294;BME280;1659;51.470;6.770;2023-07-20T10:58:09;101296.16;;;29.63;42.48
3294;BME280;1659;51.470;6.770;2023-07-20T11:00:36;101290.50;;;29.35;43.24
3294;BME280;1659;51.470;6.770;2023-07-20T11:03:04;101289.38;;;29.47;42.78
3294;BME280;1659;51.470;6.770;2023-07-20T11:05:37;101282.16;;;29.27;42.33
3294;BME280;1659;51.470;6.770;2023-07-20T11:08:05;101284.97;;;28.85;42.91
3294;BME280;1659;51.470;6.770;2023-07-20T11:10:33;101280.66;;;28.82;42.98
3294;BME280;1659;51.470;6.770;2023-07-20T11:13:20;101277.91;;;29.34;42.33
3294;BME280;1659;51.470;6.770;2023-07-20T11:16:01;101269.69;;;29.84;41.64
3294;BME280;1659;51.470;6.770;2023-07-20T11:18:28;101264.97;;;30.16;41.45
3294;BME280;1659;51.470;6.770;2023-07-20T11:20:57;101265.50;;;30.58;40.96
3294;BME280;1659;51.470;6.770;2023-07-20T11:23:23;101266.56;;;30.85;40.20
3294;BME280;1659;51.470;6.770;2023-07-20T11:25:50;101270.41;;;31.02;39.87
3294;BME280;1659;51.470;6.770;2023-07-20T11:28:17;101260.75;;;31.08;39.20
3294;BME280;1659;51.470;6.770;2023-07-20T11:30:43;101263.22;;;31.01;39.36
3294;BME280;1659;51.470;6.770;2023-07-20T11:33:10;101262.88;;;31.14;38.99
3294;BME280;1659;51.470;6.770;2023-07-20T11:35:42;101265.00;;;31.20;38.64
3294;BME280;1659;51.470;6.770;2023-07-20T11:38:12;101255.19;;;31.27;38.66
3294;BME280;1659;51.470;6.770;2023-07-20T11:40:42;101265.28;;;31.44;38.43
3294;BME280;1659;51.470;6.770;2023-07-20T11:43:09;101254.19;;;31.00;38.41
3294;BME280;1659;51.470;6.770;2023-07-20T11:45:37;101262.59;;;30.69;39.28
3294;BME280;1659;51.470;6.770;2023-07-20T11:48:04;101259.06;;;30.49;39.03
3294;BME280;1659;51.470;6.770;2023-07-20T11:50:31;101262.38;;;30.34;38.94
3294;BME280;1659;51.470;6.770;2023-07-20T11:52:58;101262.25;;;29.96;39.18
3294;BME280;1659;51.470;6.770;2023-07-20T11:55:26;101267.28;;;29.41;39.90
3294;BME280;1659;51.470;6.770;2023-07-20T11:58:02;101260.91;;;28.80;40.00
3294;BME280;1659;51.470;6.770;2023-07-20T12:00:29;101261.69;;;28.50;40.55
3294;BME280;1659;51.470;6.770;2023-07-20T12:02:56;101258.22;;;28.38;40.65
3294;BME280;1659;51.470;6.770;2023-07-20T12:05:22;101246.66;;;28.24;40.89
3294;BME280;1659;51.470;6.770;2023-07-20T12:07:50;101246.06;;;28.00;40.81
3294;BME280;1659;51.470;6.770;2023-07-20T12:10:23;101254.59;;;27.84;40.75
3294;BME280;1659;51.470;6.770;2023-07-20T12:12:52;101249.41;;;27.92;41.14
3294;BME280;1659;51.470;6.770;2023-07-20T12:15:21;101253.59;;;27.85;41.05
3294;BME280;1659;51.470;6.770;2023-07-20T12:17:50;101250.47;;;27.68;40.88
3294;BME280;1659;51.470;6.770;2023-07-20T12:20:27;101252.28;;;27.24;41.27
3294;BME280;1659;51.470;6.770;2023-07-20T12:22:56;101257.81;;;26.89;41.51
3294;BME280;1659;51.470;6.770;2023-07-20T12:25:23;101249.00;;;26.51;41.86
3294;BME280;1659;51.470;6.770;2023-07-20T12:28:01;101256.16;;;26.06;42.45
3294;BME280;1659;51.470;6.770;2023-07-20T12:30:29;101250.50;;;25.85;42.55
3294;BME280;1659;51.470;6.770;2023-07-20T12:32:56;101254.19;;;25.59;43.06
3294;BME280;1659;51.470;6.770;2023-07-20T12:35:23;101252.59;;;25.44;43.38
3294;BME280;1659;51.470;6.770;2023-07-20T12:37:49;101245.47;;;25.43;43.16
3294;BME280;1659;51.470;6.770;2023-07-20T12:40:16;101248.88;;;25.82;43.37
3294;BME280;1659;51.470;6.770;2023-07-20T12:42:43;101243.63;;;26.63;42.20
3294;BME280;1659;51.470;6.770;2023-07-20T12:45:11;101241.28;;;27.37;40.78
3294;BME280;1659;51.470;6.770;2023-07-20T12:47:39;101235.56;;;27.63;40.39
3294;BME280;1659;51.470;6.770;2023-07-20T12:50:06;101230.53;;;27.79;40.23
3294;BME280;1659;51.470;6.770;2023-07-20T12:52:36;101236.72;;;28.14;39.81
3294;BME280;1659;51.470;6.770;2023-07-20T12:55:04;101233.47;;;28.62;39.55
3294;BME280;1659;51.470;6.770;2023-07-20T12:57:31;101233.59;;;29.22;38.96
3294;BME280;1659;51.470;6.770;2023-07-20T12:59:58;101223.19;;;29.56;38.23
3294;BME280;1659;51.470;6.770;2023-07-20T13:02:26;101231.50;;;29.45;38.56
3294;BME280;1659;51.470;6.770;2023-07-20T13:04:52;101234.16;;;29.16;38.58
3294;BME280;1659;51.470;6.770;2023-07-20T13:07:29;101231.25;;;28.77;38.47
3294;BME280;1659;51.470;6.770;2023-07-20T13:09:56;101234.53;;;28.29;39.53
3294;BME280;1659;51.470;6.770;2023-07-20T13:12:23;101221.53;;;27.79;39.80
3294;BME280;1659;51.470;6.770;2023-07-20T13:14:50;101227.34;;;27.42;40.25